sensor_id;sensor_type;location;lat;lon;timestamp;temperature;humidity
44731;DHT22;30458;47.448;19.032;2023-05-13T00:09:10;12.80;99.90
44731;DHT22;30458;47.448;19.032;2023-05-13T00:19:11;12.70;99.90
44731;DHT22;30458;47.448;19.032;2023-05-13T00:29:12;12.60;99.90
44731;DHT22;30458;47.448;19.032;2023-05-13T00:39:15;12.60;99.90
44731;DHT22;30458;47.448;19.032;2023-05-13T00:49:16;12.60;99.90
44731;DHT22;30458;47.448;19.032;2023-05-13T00:59:17;12.50;99.90
44731;DHT22;30458;47.448;19.032;2023-05-13T01:19:51;12.50;99.90
44731;DHT22;30458;47.448;19.032;2023-05-13T01:29:54;12.50;99.90
44731;DHT22;30458;47.448;19.032;2023-05-13T01:40:00;12.50;99.90
44731;DHT22;30458;47.448;19.032;2023-05-13T01:50:05;12.60;99.90
44731;DHT22;30458;47.448;19.032;2023-05-13T02:00:11;12.50;99.90
44731;DHT22;30458;47.448;19.032;2023-05-13T02:10:14;12.50;99.90
44731;DHT22;30458;47.448;19.032;2023-05-13T02:20:15;12.50;99.90
44731;DHT22;30458;47.448;19.032;2023-05-13T02:30:16;12.40;99.90
44731;DHT22;30458;47.448;19.032;2023-05-13T02:40:18;12.30;99.90
44731;DHT22;30458;47.448;19.032;2023-05-13T02:50:23;12.20;99.90
44731;DHT22;30458;47.448;19.032;2023-05-13T03:00:24;12.20;99.90
44731;DHT22;30458;47.448;19.032;2023-05-13T03:10:25;12.20;99.90
44731;DHT22;30458;47.448;19.032;2023-05-13T03:20:30;12.10;99.90
44731;DHT22;30458;47.448;19.032;2023-05-13T03:30:32;12.20;99.90
44731;DHT22;30458;47.448;19.032;2023-05-13T03:40:38;12.20;99.90
44731;DHT22;30458;47.448;19.032;2023-05-13T03:50:40;12.10;99.90
44731;DHT22;30458;47.448;19.032;2023-05-13T04:00:44;12.20;99.90
44731;DHT22;30458;47.448;19.032;2023-05-13T04:10:47;12.20;99.90
44731;DHT22;30458;47.448;19.032;2023-05-13T04:20:48;12.20;99.90
44731;DHT22;30458;47.448;19.032;2023-05-13T04:30:49;12.30;99.90
44731;DHT22;30458;47.448;19.032;2023-05-13T04:40:51;12.40;99.90
44731;DHT22;30458;47.448;19.032;2023-05-13T04:51:02;12.30;99.90
44731;DHT22;30458;47.448;19.032;2023-05-13T05:01:03;12.30;99.90
44731;DHT22;30458;47.448;19.032;2023-05-13T05:11:05;12.30;99.90
44731;DHT22;30458;47.448;19.032;2023-05-13T05:21:14;12.30;99.90
44731;DHT22;30458;47.448;19.032;2023-05-13T05:31:14;12.20;99.90
44731;DHT22;30458;47.448;19.032;2023-05-13T05:41:18;12.20;99.90
44731;DHT22;30458;47.448;19.032;2023-05-13T05:51:20;12.30;99.90
44731;DHT22;30458;47.448;19.032;2023-05-13T06:01:22;12.30;99.90
44731;DHT22;30458;47.448;19.032;2023-05-13T06:11:25;12.40;99.90
44731;DHT22;30458;47.448;19.032;2023-05-13T06:21:25;12.40;99.90
44731;DHT22;30458;47.448;19.032;2023-05-13T06:31:26;12.40;99.90
44731;DHT22;30458;47.448;19.032;2023-05-13T06:41:33;12.40;99.90
44731;DHT22;30458;47.448;19.032;2023-05-13T06:51:42;12.30;99.90
44731;DHT22;30458;47.448;19.032;2023-05-13T07:01:43;12.40;99.90
44731;DHT22;30458;47.448;19.032;2023-05-13T07:11:46;12.60;99.90
44731;DHT22;30458;47.448;19.032;2023-05-13T07:21:47;12.70;99.90
44731;DHT22;30458;47.448;19.032;2023-05-13T07:31:53;12.80;99.90
44731;DHT22;30458;47.448;19.032;2023-05-13T07:41:57;12.90;99.90
44731;DHT22;30458;47.448;19.032;2023-05-13T07:52:03;12.80;99.90
44731;DHT22;30458;47.448;19.032;2023-05-13T08:02:06;13.00;99.90
44731;DHT22;30458;47.448;19.032;2023-05-13T08:12:11;13.00;99.90
44731;DHT22;30458;47.448;19.032;2023-05-13T08:22:12;13.10;99.90
44731;DHT22;30458;47.448;19.032;2023-05-13T08:32:13;13.00;99.90
44731;DHT22;30458;47.448;19.032;2023-05-13T08:42:15;13.00;99.90
44731;DHT22;30458;47.448;19.032;2023-05-13T08:52:21;13.20;99.90
44731;DHT22;30458;47.448;19.032;2023-05-13T09:02:22;13.40;99.90
44731;DHT22;30458;47.448;19.032;2023-05-13T09:12:52;13.50;99.90
44731;DHT22;30458;47.448;19.032;2023-05-13T09:22:56;13.60;99.90
44731;DHT22;30458;47.448;19.032;2023-05-13T09:43:05;13.80;99.90
44731;DHT22;30458;47.448;19.032;2023-05-13T09:53:10;14.00;99.90
44731;DHT22;30458;47.448;19.032;2023-05-13T10:03:14;14.10;99.90
44731;DHT22;30458;47.448;19.032;2023-05-13T10:13:17;14.30;99.90
44731;DHT22;30458;47.448;19.032;2023-05-13T10:23:21;14.50;99.90
44731;DHT22;30458;47.448;19.032;2023-05-13T10:33:23;14.50;99.90
44731;DHT22;30458;47.448;19.032;2023-05-13T10:43:30;14.50;99.90
44731;DHT22;30458;47.448;19.032;2023-05-13T10:53:36;14.40;99.90
44731;DHT22;30458;47.448;19.032;2023-05-13T11:03:40;14.30;99.90
44731;DHT22;30458;47.448;19.032;2023-05-13T11:13:43;14.30;99.90
44731;DHT22;30458;47.448;19.032;2023-05-13T11:23:57;14.40;99.90
44731;DHT22;30458;47.448;19.032;2023-05-13T11:34:09;14.40;99.90
44731;DHT22;30458;47.448;19.032;2023-05-13T11:44:12;14.40;99.90
44731;DHT22;30458;47.448;19.032;2023-05-13T11:54:13;14.40;99.90
44731;DHT22;30458;47.448;19.032;2023-05-13T12:04:14;14.50;99.90
44731;DHT22;30458;47.448;19.032;2023-05-13T12:14:16;14.60;99.90
44731;DHT22;30458;47.448;19.032;2023-05-13T12:24:21;14.60;99.90
44731;DHT22;30458;47.448;19.032;2023-05-13T12:34:33;14.70;99.90
44731;DHT22;30458;47.448;19.032;2023-05-13T12:44:37;14.70;99.90
44731;DHT22;30458;47.448;19.032;2023-05-13T12:54:38;14.80;99.90
44731;DHT22;30458;47.448;19.032;2023-05-13T13:04:40;14.90;99.90
44731;DHT22;30458;47.448;19.032;2023-05-13T13:14:40;15.00;99.90
44731;DHT22;30458;47.448;19.032;2023-05-13T13:24:41;15.00;99.90
44731;DHT22;30458;47.448;19.032;2023-05-13T13:34:42;15.20;99.90
44731;DHT22;30458;47.448;19.032;2023-05-13T13:44:43;15.20;99.90
44731;DHT22;30458;47.448;19.032;2023-05-13T13:54:43;15.20;99.90
44731;DHT22;30458;47.448;19.032;2023-05-13T14:04:48;15.30;99.90
44731;DHT22;30458;47.448;19.032;2023-05-13T14:14:49;15.40;99.90
44731;DHT22;30458;47.448;19.032;2023-05-13T14:24:51;15.50;99.90
44731;DHT22;30458;47.448;19.032;2023-05-13T14:34:51;15.60;99.90
44731;DHT22;30458;47.448;19.032;2023-05-13T14:44:54;15.60;99.90
44731;DHT22;30458;47.448;19.032;2023-05-13T14:54:57;15.90;99.90
44731;DHT22;30458;47.448;19.032;2023-05-13T15:04:58;15.70;99.90
44731;DHT22;30458;47.448;19.032;2023-05-13T15:15:02;15.60;99.90
44731;DHT22;30458;47.448;19.032;2023-05-13T15:25:04;15.60;99.90
44731;DHT22;30458;47.448;19.032;2023-05-13T15:35:07;15.60;99.90
44731;DHT22;30458;47.448;19.032;2023-05-13T15:45:08;15.70;99.90
44731;DHT22;30458;47.448;19.032;2023-05-13T15:55:16;15.40;99.90
44731;DHT22;30458;47.448;19.032;2023-05-13T16:05:17;15.30;99.90
44731;DHT22;30458;47.448;19.032;2023-05-13T16:15:20;15.30;99.90
44731;DHT22;30458;47.448;19.032;2023-05-13T16:25:23;15.30;99.90
44731;DHT22;30458;47.448;19.032;2023-05-13T16:35:24;15.30;99.90
44731;DHT22;30458;47.448;19.032;2023-05-13T16:45:26;15.30;99.90
44731;DHT22;30458;47.448;19.032;2023-05-13T16:55:27;15.30;99.90
44731;DHT22;30458;47.448;19.032;2023-05-13T17:05:27;15.30;99.90
44731;DHT22;30458;47.448;19.032;2023-05-13T17:15:29;15.30;99.90
44731;DHT22;30458;47.448;19.032;2023-05-13T17:25:34;15.30;99.90
44731;DHT22;30458;47.448;19.032;2023-05-13T17:35:35;15.20;99.90
44731;DHT22;30458;47.448;19.032;2023-05-13T17:45:36;15.10;99.90
44731;DHT22;30458;47.448;19.032;2023-05-13T17:55:37;15.10;99.90
44731;DHT22;30458;47.448;19.032;2023-05-13T18:05:42;15.00;99.90
44731;DHT22;30458;47.448;19.032;2023-05-13T18:15:43;15.00;99.90
44731;DHT22;30458;47.448;19.032;2023-05-13T18:25:46;14.90;99.90
44731;DHT22;30458;47.448;19.032;2023-05-13T18:35:47;14.90;99.90
44731;DHT22;30458;47.448;19.032;2023-05-13T18:45:48;14.90;99.90
44731;DHT22;30458;47.448;19.032;2023-05-13T18:55:49;14.80;99.90
44731;DHT22;30458;47.448;19.032;2023-05-13T19:05:50;14.80;99.90
44731;DHT22;30458;47.448;19.032;2023-05-13T19:15:53;14.80;99.90
44731;DHT22;30458;47.448;19.032;2023-05-13T19:25:54;14.70;99.90
44731;DHT22;30458;47.448;19.032;2023-05-13T19:35:55;14.70;99.90
44731;DHT22;30458;47.448;19.032;2023-05-13T19:45:56;14.70;99.90
44731;DHT22;30458;47.448;19.032;2023-05-13T19:55:59;14.60;99.90
44731;DHT22;30458;47.448;19.032;2023-05-13T20:06:04;14.50;99.90
44731;DHT22;30458;47.448;19.032;2023-05-13T20:16:05;14.40;99.90
44731;DHT22;30458;47.448;19.032;2023-05-13T20:26:09;14.30;99.90
44731;DHT22;30458;47.448;19.032;2023-05-13T20:36:10;14.20;99.90
44731;DHT22;30458;47.448;19.032;2023-05-13T20:46:13;14.00;99.90
44731;DHT22;30458;47.448;19.032;2023-05-13T20:56:16;14.10;99.90
44731;DHT22;30458;47.448;19.032;2023-05-13T21:06:16;14.00;99.90
44731;DHT22;30458;47.448;19.032;2023-05-13T21:16:17;13.80;99.90
44731;DHT22;30458;47.448;19.032;2023-05-13T21:26:19;13.90;99.90
44731;DHT22;30458;47.448;19.032;2023-05-13T21:36:21;14.00;99.90
44731;DHT22;30458;47.448;19.032;2023-05-13T21:46:25;14.00;99.90
44731;DHT22;30458;47.448;19.032;2023-05-13T21:56:25;14.00;99.90
44731;DHT22;30458;47.448;19.032;2023-05-13T22:06:26;14.00;99.90
44731;DHT22;30458;47.448;19.032;2023-05-13T22:16:27;14.00;99.90
44731;DHT22;30458;47.448;19.032;2023-05-13T22:26:28;13.90;99.90
44731;DHT22;30458;47.448;19.032;2023-05-13T22:36:28;13.90;99.90
44731;DHT22;30458;47.448;19.032;2023-05-13T22:46:35;13.80;99.90
44731;DHT22;30458;47.448;19.032;2023-05-13T22:56:36;13.90;99.90
44731;DHT22;30458;47.448;19.032;2023-05-13T23:06:36;13.90;99.90
44731;DHT22;30458;47.448;19.032;2023-05-13T23:16:37;13.90;99.90
44731;DHT22;30458;47.448;19.032;2023-05-13T23:26:41;13.90;99.90
44731;DHT22;30458;47.448;19.032;2023-05-13T23:36:46;14.00;99.90
44731;DHT22;30458;47.448;19.032;2023-05-13T23:46:47;13.90;99.90
44731;DHT22;30458;47.448;19.032;2023-05-13T23:56:49;13.90;99.90
